Time;durP1;ratioP1;P1;durP2;ratioP2;P2;SDS_P1;SDS_P2;PMS_P1;PMS_P2;Temp;Humidity;BMP_temperature;BMP_pressure;BME280_temperature;BME280_humidity;BME280_pressure;Samples;Min_cycle;Max_cycle;Signal;HPM_P1;HPM_P2
2020/12/21 00:01:58;;;;;;;134.70;55.58;;;;;;;-2.32;72.91;98154.89;1845226;77;25562;-84
2020/12/21 00:04:25;;;;;;;140.03;56.73;;;;;;;-2.34;72.88;98158.12;1821672;77;25795;-85
2020/12/21 00:06:59;;;;;;;141.57;55.28;;;;;;;-2.35;72.84;98154.27;1821672;77;26859;-85
2020/12/21 00:09:26;;;;;;;130.40;51.37;;;;;;;-2.34;72.87;98150.66;1821702;77;25741;-84
2020/12/21 00:11:54;;;;;;;111.00;48.15;;;;;;;-2.35;72.91;98150.30;1821576;77;25828;-84
2020/12/21 00:14:21;;;;;;;102.60;44.18;;;;;;;-2.39;73.00;98149.67;1826488;77;26535;-85
2020/12/21 00:16:51;;;;;;;106.80;41.92;;;;;;;-2.39;73.10;98147.50;1855215;77;26187;-84
2020/12/21 00:19:21;;;;;;;91.63;40.38;;;;;;;-2.42;73.23;98143.78;1855187;77;27456;-85
2020/12/21 00:21:52;;;;;;;96.25;40.80;;;;;;;-2.48;73.19;98149.50;1855011;76;25783;-83
2020/12/21 00:24:23;;;;;;;107.22;44.00;;;;;;;-2.49;73.18;98146.49;1855054;77;25758;-84
2020/12/21 00:26:52;;;;;;;107.07;46.70;;;;;;;-2.48;73.14;98145.54;1842211;77;25765;-84
2020/12/21 00:29:20;;;;;;;98.42;43.65;;;;;;;-2.51;73.13;98144.44;1845536;77;26448;-84
2020/12/21 00:31:49;;;;;;;102.80;43.85;;;;;;;-2.49;73.17;98141.20;1855120;77;28686;-85
2020/12/21 00:34:17;;;;;;;99.52;42.93;;;;;;;-2.50;73.15;98143.00;1855005;77;25775;-84
2020/12/21 00:36:49;;;;;;;99.70;42.50;;;;;;;-2.51;73.16;98144.44;1846364;77;25735;-84
2020/12/21 00:39:17;;;;;;;94.42;38.80;;;;;;;-2.51;73.16;98153.69;1842233;77;26458;-84
2020/12/21 00:41:46;;;;;;;83.45;37.30;;;;;;;-2.52;73.16;98158.61;1831531;76;25763;-85
2020/12/21 00:44:14;;;;;;;89.03;39.58;;;;;;;-2.56;73.25;98163.30;1855229;77;27468;-84
2020/12/21 00:46:42;;;;;;;81.65;36.93;;;;;;;-2.60;73.36;98161.34;1855072;77;25768;-83
2020/12/21 00:49:09;;;;;;;82.85;37.45;;;;;;;-2.58;73.46;98163.40;1839317;77;25664;-85
2020/12/21 00:51:37;;;;;;;82.47;37.48;;;;;;;-2.58;73.48;98166.05;1847973;77;26278;-84
2020/12/21 00:54:04;;;;;;;80.53;34.90;;;;;;;-2.57;73.49;98165.09;1841272;77;25843;-84
2020/12/21 00:56:32;;;;;;;83.55;37.05;;;;;;;-2.60;73.47;98168.42;1834447;77;27482;-84
2020/12/21 00:59:00;;;;;;;95.87;41.58;;;;;;;-2.68;73.43;98165.03;1820024;77;26031;-84
2020/12/21 01:01:29;;;;;;;100.22;42.65;;;;;;;-2.67;73.42;98164.55;1821608;77;25713;-83
2020/12/21 01:04:04;;;;;;;94.03;41.77;;;;;;;-2.68;73.42;98165.03;1817876;77;25833;-85
2020/12/21 01:06:34;;;;;;;89.70;40.33;;;;;;;-2.69;73.43;98162.02;1842694;77;25821;-84
2020/12/21 01:09:02;;;;;;;91.28;40.05;;;;;;;-2.69;73.44;98165.98;1842154;77;27495;-84
2020/12/21 01:11:29;;;;;;;94.22;37.90;;;;;;;-2.68;73.42;98171.63;1836353;77;25706;-84
2020/12/21 01:13:57;;;;;;;80.12;35.38;;;;;;;-2.72;73.37;98162.23;1835514;77;25651;-85
2020/12/21 01:16:25;;;;;;;72.97;34.43;;;;;;;-2.77;73.38;98160.38;1809415;77;26314;-86
2020/12/21 01:18:53;;;;;;;86.20;36.28;;;;;;;-2.76;73.52;98156.78;1829677;77;25767;-84
2020/12/21 01:21:29;;;;;;;75.03;33.10;;;;;;;-2.76;73.50;98148.86;1842649;77;27475;-85
2020/12/21 01:23:58;;;;;;;76.00;33.78;;;;;;;-2.75;73.49;98158.48;1842566;77;25681;-86
2020/12/21 01:26:28;;;;;;;84.10;35.00;;;;;;;-2.77;73.49;98152.45;1842449;77;25712;-84
2020/12/21 01:28:56;;;;;;;79.03;33.48;;;;;;;-2.77;73.51;98156.42;1842673;77;25729;-84
2020/12/21 01:31:24;;;;;;;81.35;34.05;;;;;;;-2.82;73.48;98144.03;1798260;77;25826;-87
2020/12/21 01:33:52;;;;;;;87.55;35.40;;;;;;;-2.92;73.47;98148.30;1809411;77;28512;-85
2020/12/21 01:36:20;;;;;;;92.60;39.27;;;;;;;-2.93;73.59;98143.96;1830774;77;26227;-85
2020/12/21 01:38:48;;;;;;;86.02;36.15;;;;;;;-3.01;73.54;98151.09;1796292;77;25755;-86
2020/12/21 01:41:16;;;;;;;80.57;34.73;;;;;;;-3.05;73.61;98148.80;1793385;77;26527;-84
2020/12/21 01:43:43;;;;;;;79.20;34.20;;;;;;;-3.03;73.71;98153.50;1787285;77;26539;-85
2020/12/21 01:46:16;;;;;;;86.67;34.05;;;;;;;-3.00;73.72;98149.30;1801535;77;27496;-85
2020/12/21 01:48:45;;;;;;;68.97;32.40;;;;;;;-2.98;73.75;98143.43;1819312;77;26621;-84
2020/12/21 01:51:26;;;;;;;80.22;31.30;;;;;;;-3.02;73.75;98145.94;1822005;77;25777;-86
2020/12/21 01:53:56;;;;;;;73.15;32.35;;;;;;;-3.01;73.80;98144.96;1820435;77;25788;-85
2020/12/21 01:56:24;;;;;;;70.92;31.37;;;;;;;-2.98;73.81;98143.43;1842505;77;25778;-85
2020/12/21 01:58:52;;;;;;;67.03;30.05;;;;;;;-2.96;73.77;98145.49;1819188;77;27714;-83
2020/12/21 02:01:20;;;;;;;69.25;29.45;;;;;;;-2.97;73.78;98139.36;1823385;77;25678;-84
2020/12/21 02:03:48;;;;;;;65.20;29.45;;;;;;;-3.03;73.83;98139.81;1839239;77;25705;-84
2020/12/21 02:06:17;;;;;;;67.58;29.30;;;;;;;-3.08;73.91;98133.16;1810570;77;26903;-84
2020/12/21 02:08:44;;;;;;;65.17;29.23;;;;;;;-3.05;73.97;98132.95;1829084;77;25852;-84
2020/12/21 02:11:12;;;;;;;58.25;26.10;;;;;;;-3.03;73.97;98137.17;1824019;77;27564;-85
2020/12/21 02:13:39;;;;;;;57.25;27.75;;;;;;;-3.11;74.00;98136.85;1835318;77;25693;-85
2020/12/21 02:16:07;;;;;;;59.18;25.65;;;;;;;-3.10;74.04;98137.70;1842496;77;26395;-86
2020/12/21 02:18:34;;;;;;;64.72;28.05;;;;;;;-3.07;74.11;98140.98;1842666;77;25732;-83
2020/12/21 02:21:02;;;;;;;63.58;28.20;;;;;;;-3.06;74.02;98132.58;1815424;77;25858;-84
2020/12/21 02:23:29;;;;;;;67.75;29.07;;;;;;;-3.02;73.93;98137.52;1823519;77;27543;-84
2020/12/21 02:25:56;;;;;;;63.48;28.87;;;;;;;-3.00;73.88;98133.45;1818012;77;25771;-84
2020/12/21 02:28:23;;;;;;;59.67;27.50;;;;;;;-3.02;73.78;98130.09;1801735;77;25766;-84
2020/12/21 02:30:51;;;;;;;57.23;27.10;;;;;;;-3.07;73.82;98129.09;1801814;77;25648;-84
2020/12/21 02:33:18;;;;;;;53.23;25.43;;;;;;;-3.06;73.88;98130.78;1803549;77;25718;-84
2020/12/21 02:35:45;;;;;;;53.23;24.40;;;;;;;-3.07;73.96;98129.56;1800073;77;27555;-84
2020/12/21 02:38:13;;;;;;;48.87;22.52;;;;;;;-3.08;74.00;98126.55;1835908;77;26077;-86
2020/12/21 02:40:41;;;;;;;53.92;23.73;;;;;;;-3.10;74.07;98140.34;1825942;77;25766;-85
2020/12/21 02:43:09;;;;;;;56.18;24.65;;;;;;;-3.10;74.14;98137.70;1825058;77;26324;-84
2020/12/21 02:45:36;;;;;;;57.65;24.57;;;;;;;-3.05;74.09;98139.55;1819080;77;25873;-84
2020/12/21 02:48:03;;;;;;;48.87;23.18;;;;;;;-3.08;73.88;98134.48;1815004;77;27489;-84
2020/12/21 02:50:31;;;;;;;56.75;25.08;;;;;;;-3.11;73.89;98138.65;1809426;77;25716;-84
2020/12/21 02:52:58;;;;;;;60.38;24.95;;;;;;;-3.22;73.78;98134.60;1809414;77;25384;-84
2020/12/21 02:55:25;;;;;;;57.40;23.55;;;;;;;-3.26;73.89;98136.13;1819039;77;26432;-84
2020/12/21 02:57:52;;;;;;;50.45;23.42;;;;;;;-3.26;73.95;98138.77;1800166;77;25860;-85
2020/12/21 03:00:20;;;;;;;51.37;22.20;;;;;;;-3.23;74.05;98135.55;1793676;77;27557;-84
2020/12/21 03:02:47;;;;;;;52.20;23.95;;;;;;;-3.18;74.12;98133.45;1809266;77;25755;-84
2020/12/21 03:05:14;;;;;;;46.42;21.55;;;;;;;-3.14;74.34;98138.89;1806975;77;25895;-85
2020/12/21 03:07:42;;;;;;;47.27;22.95;;;;;;;-3.12;74.48;98141.77;1787398;77;25690;-84
2020/12/21 03:10:09;;;;;;;52.17;22.13;;;;;;;-3.09;74.58;98134.95;1827128;77;25808;-84
2020/12/21 03:12:36;;;;;;;48.45;23.52;;;;;;;-3.04;74.38;98138.59;1809709;77;27415;-84
2020/12/21 03:15:04;;;;;;;42.27;20.32;;;;;;;-3.00;74.25;98142.69;1809529;77;26105;-83
2020/12/21 03:17:31;;;;;;;49.45;22.93;;;;;;;-3.02;74.13;98140.16;1810902;77;25344;-83
2020/12/21 03:19:58;;;;;;;48.02;23.60;;;;;;;-3.11;73.83;98143.93;1812093;77;26587;-84
2020/12/21 03:22:25;;;;;;;51.88;25.25;;;;;;;-3.16;73.84;98147.39;1826191;77;26301;-84
2020/12/21 03:24:53;;;;;;;57.48;27.00;;;;;;;-3.24;73.92;98147.91;1812708;77;27506;-83
2020/12/21 03:27:20;;;;;;;63.08;28.55;;;;;;;-3.21;74.09;98149.50;1796970;77;26339;-83
2020/12/21 03:29:47;;;;;;;73.12;29.50;;;;;;;-3.20;74.25;98157.80;1791150;77;25705;-84
2020/12/21 03:32:15;;;;;;;65.55;28.55;;;;;;;-3.15;74.40;98159.64;1825605;77;25722;-84
2020/12/21 03:34:42;;;;;;;60.23;27.27;;;;;;;-3.12;74.30;98164.69;1814165;77;25673;-84
2020/12/21 03:37:10;;;;;;;59.83;27.85;;;;;;;-3.17;74.08;98158.91;1809145;77;28376;-84
2020/12/21 03:39:37;;;;;;;63.08;27.40;;;;;;;-3.21;74.03;98166.19;1842549;77;26103;-84
2020/12/21 03:42:04;;;;;;;58.52;28.52;;;;;;;-3.31;73.89;98150.16;1842685;77;26208;-84
2020/12/21 03:44:32;;;;;;;69.82;31.42;;;;;;;-3.36;74.01;98154.89;1842672;77;26310;-83
2020/12/21 03:46:59;;;;;;;77.62;33.98;;;;;;;-3.34;74.17;98153.00;1806144;77;26333;-84
2020/12/21 03:49:26;;;;;;;75.83;33.13;;;;;;;-3.33;74.26;98151.20;1787366;77;27670;-83
2020/12/21 03:51:54;;;;;;;74.42;32.98;;;;;;;-3.28;74.27;98161.83;1826807;77;26174;-85
2020/12/21 03:54:22;;;;;;;67.05;29.25;;;;;;;-3.26;74.21;98162.53;1812009;77;25836;-83
2020/12/21 03:56:50;;;;;;;66.25;28.70;;;;;;;-3.28;74.12;98160.50;1801561;77;26453;-84
2020/12/21 03:59:17;;;;;;;69.00;29.63;;;;;;;-3.31;73.97;98159.39;1794629;78;25712;-83
2020/12/21 04:01:44;;;;;;;70.83;30.30;;;;;;;-3.38;73.85;98159.43;1762784;81;27570;-84
2020/12/21 04:04:11;;;;;;;75.67;30.35;;;;;;;-3.52;73.65;98162.20;1776074;79;25784;-83
2020/12/21 04:06:40;;;;;;;69.77;31.00;;;;;;;-3.60;73.72;98165.83;1767715;80;25791;-83
2020/12/21 04:09:07;;;;;;;64.55;29.60;;;;;;;-3.60;73.84;98163.19;1751232;81;25766;-83
2020/12/21 04:11:34;;;;;;;66.02;29.50;;;;;;;-3.58;73.94;98163.94;1729599;82;25842;-83
2020/12/21 04:14:01;;;;;;;84.70;35.00;;;;;;;-3.58;73.91;98166.57;1730051;81;27550;-83
2020/12/21 04:16:29;;;;;;;90.97;38.50;;;;;;;-3.54;73.98;98170.70;1720290;82;25769;-83
2020/12/21 04:18:56;;;;;;;98.22;37.48;;;;;;;-3.49;74.11;98165.93;1734494;81;25923;-83
2020/12/21 04:21:23;;;;;;;97.78;41.48;;;;;;;-3.44;74.09;98173.06;1754632;81;25785;-83
2020/12/21 04:23:51;;;;;;;98.47;39.27;;;;;;;-3.41;74.12;98174.19;1742742;81;25761;-83
2020/12/21 04:26:18;;;;;;;104.05;42.17;;;;;;;-3.43;73.96;98172.59;1724058;80;27492;-84
2020/12/21 04:28:45;;;;;;;109.72;42.88;;;;;;;-3.47;73.98;98177.23;1741386;81;25329;-83
2020/12/21 04:31:12;;;;;;;117.87;46.53;;;;;;;-3.43;74.13;98174.77;1730708;81;25656;-83
2020/12/21 04:33:40;;;;;;;105.63;43.02;;;;;;;-3.37;74.22;98169.04;1731414;80;25726;-84
2020/12/21 04:36:11;;;;;;;121.47;47.38;;;;;;;-3.29;74.29;98168.05;1768128;80;25337;-83
2020/12/21 04:38:41;;;;;;;110.40;47.27;;;;;;;-3.25;74.26;98173.94;1758012;80;28473;-83
2020/12/21 04:41:10;;;;;;;121.22;47.05;;;;;;;-3.21;74.35;98174.11;1731386;80;25702;-84
2020/12/21 04:43:38;;;;;;;121.67;49.25;;;;;;;-3.18;74.43;98177.02;1742944;80;25797;-84
2020/12/21 04:46:09;;;;;;;123.72;49.63;;;;;;;-3.10;74.60;98179.95;1773132;80;25783;-84
2020/12/21 04:48:42;;;;;;;116.05;47.58;;;;;;;-3.03;74.71;98184.72;1762801;80;25759;-84
2020/12/21 04:51:09;;;;;;;95.03;42.03;;;;;;;-3.00;74.76;98184.95;1762872;80;27500;-84
2020/12/21 04:53:40;;;;;;;89.03;37.35;;;;;;;-2.96;74.91;98179.83;1740587;80;25792;-84
2020/12/21 04:56:08;;;;;;;83.25;36.17;;;;;;;-2.87;75.09;98184.45;1774675;79;25769;-86
2020/12/21 04:58:36;;;;;;;89.95;38.88;;;;;;;-2.79;75.09;98184.77;1805412;79;26282;-85
2020/12/21 05:01:03;;;;;;;106.25;43.42;;;;;;;-2.75;75.16;98175.66;1805493;79;25948;-84
2020/12/21 05:03:31;;;;;;;100.12;44.85;;;;;;;-2.70;75.28;98185.43;1805441;78;28367;-84
2020/12/21 05:06:07;;;;;;;99.67;42.75;;;;;;;-2.63;75.32;98186.66;1791617;79;25859;-84
2020/12/21 05:08:35;;;;;;;90.75;40.20;;;;;;;-2.56;75.30;98185.77;1776226;80;25316;-84
2020/12/21 05:11:05;;;;;;;106.65;42.60;;;;;;;-2.53;75.29;98189.48;1800733;77;25941;-84
2020/12/21 05:13:34;;;;;;;104.60;42.70;;;;;;;-2.49;75.35;98192.76;1804769;77;25806;-84
2020/12/21 05:16:03;;;;;;;123.75;45.85;;;;;;;-2.45;75.32;98190.27;1823134;77;27519;-84
2020/12/21 05:18:34;;;;;;;128.00;46.65;;;;;;;-2.42;75.31;98194.02;1840583;77;26150;-85
2020/12/21 05:21:07;;;;;;;126.87;47.48;;;;;;;-2.37;75.40;98190.55;1807707;77;25763;-84
2020/12/21 05:23:35;;;;;;;128.90;46.35;;;;;;;-2.31;75.42;98186.14;1842548;77;25685;-84
2020/12/21 05:26:08;;;;;;;130.90;49.20;;;;;;;-2.31;75.38;98180.86;1819207;77;25727;-85
2020/12/21 05:28:38;;;;;;;149.07;56.28;;;;;;;-2.33;75.45;98186.25;1842624;77;28455;-85
2020/12/21 05:31:11;;;;;;;144.10;54.10;;;;;;;-2.37;75.52;98179.97;1838616;77;26126;-85
2020/12/21 05:33:43;;;;;;;131.37;52.08;;;;;;;-2.31;75.74;98187.47;1799202;77;25788;-84
2020/12/21 05:36:17;;;;;;;118.35;49.75;;;;;;;-2.21;75.85;98195.09;1789841;77;25526;-85
2020/12/21 05:38:56;;;;;;;131.72;51.13;;;;;;;-2.14;75.80;98195.47;1824425;77;25734;-84
2020/12/21 05:41:24;;;;;;;133.05;54.35;;;;;;;-2.11;75.87;98193.92;1837395;77;28921;-84
2020/12/21 05:43:53;;;;;;;142.18;59.65;;;;;;;-2.10;75.86;98191.17;1809324;77;25889;-84
2020/12/21 05:46:24;;;;;;;125.10;57.35;;;;;;;-2.03;75.94;98200.33;1835867;77;25781;-84
2020/12/21 05:48:54;;;;;;;138.52;58.38;;;;;;;-2.01;76.00;98197.09;1828323;77;25791;-84
2020/12/21 05:51:34;;;;;;;128.95;56.00;;;;;;;-1.98;76.01;98198.67;1834704;77;25853;-84
2020/12/21 05:54:05;;;;;;;115.72;51.55;;;;;;;-1.95;76.07;98199.30;1827468;77;27173;-84
2020/12/21 05:56:36;;;;;;;104.60;46.42;;;;;;;-1.91;76.17;98199.41;1791516;77;25833;-85
2020/12/21 05:59:04;;;;;;;102.27;48.98;;;;;;;-1.89;76.22;98203.27;1812044;77;25303;-85
2020/12/21 06:01:31;;;;;;;96.00;44.90;;;;;;;-1.86;76.27;98202.58;1817340;77;25710;-85
2020/12/21 06:04:04;;;;;;;94.37;42.53;;;;;;;-1.82;76.30;98194.78;1809408;77;25881;-85
2020/12/21 06:06:35;;;;;;;108.78;45.80;;;;;;;-1.75;76.33;98191.17;1824973;77;27482;-85
2020/12/21 06:09:05;;;;;;;121.83;50.17;;;;;;;-1.71;76.38;98185.18;1824120;77;25778;-85
2020/12/21 06:11:35;;;;;;;113.60;50.33;;;;;;;-1.65;76.48;98188.19;1815386;77;25660;-85
2020/12/21 06:14:09;;;;;;;92.25;41.55;;;;;;;-1.59;76.52;98185.09;1807673;77;26450;-85
2020/12/21 06:16:37;;;;;;;83.95;37.25;;;;;;;-1.52;76.49;98187.63;1835242;77;25813;-85
2020/12/21 06:19:10;;;;;;;80.42;35.65;;;;;;;-1.44;76.52;98183.05;1838960;77;27511;-85
2020/12/21 06:21:54;;;;;;;66.77;32.30;;;;;;;-1.39;76.58;98183.56;1839353;77;26033;-86
2020/12/21 06:24:24;;;;;;;69.17;33.73;;;;;;;-1.32;76.60;98184.76;1821846;77;25902;-86
2020/12/21 06:26:56;;;;;;;65.67;33.67;;;;;;;-1.26;76.60;98183.45;1842536;77;25761;-85
2020/12/21 06:29:27;;;;;;;85.28;41.30;;;;;;;-1.24;76.59;98181.53;1813030;77;25715;-85
2020/12/21 06:31:58;;;;;;;91.55;42.08;;;;;;;-1.25;76.67;98179.37;1812332;77;27478;-85
2020/12/21 06:34:32;;;;;;;91.28;43.17;;;;;;;-1.22;76.72;98181.78;1842350;77;26028;-85
2020/12/21 06:37:16;;;;;;;82.45;41.28;;;;;;;-1.24;76.74;98178.89;1842664;77;25702;-86
2020/12/21 06:39:43;;;;;;;105.80;50.88;;;;;;;-1.28;76.79;98179.59;1833825;77;26450;-86
2020/12/21 06:42:17;;;;;;;181.70;81.32;;;;;;;-1.31;76.79;98186.45;1797891;77;25818;-86
2020/12/21 06:44:44;;;;;;;184.63;84.50;;;;;;;-1.28;76.82;98186.22;1836901;77;28359;-85
2020/12/21 06:47:13;;;;;;;166.70;76.57;;;;;;;-1.23;76.93;98183.23;1838968;77;25744;-86
2020/12/21 06:49:40;;;;;;;149.10;68.33;;;;;;;-1.21;77.00;98190.58;1817496;77;25757;-86
2020/12/21 06:52:09;;;;;;;134.15;60.85;;;;;;;-1.18;77.04;98187.66;1787666;77;43630;-86
2020/12/21 06:54:36;;;;;;;112.25;51.37;;;;;;;-1.17;77.05;98190.20;1787143;77;25772;-86
2020/12/21 06:57:04;;;;;;;111.37;51.60;;;;;;;-1.12;77.16;98192.50;1793177;77;27478;-86
2020/12/21 06:59:31;;;;;;;101.72;46.92;;;;;;;-1.10;77.17;98190.11;1824552;77;26161;-86
2020/12/21 07:01:59;;;;;;;110.32;51.48;;;;;;;-1.11;77.16;98192.39;1834380;77;25913;-86
2020/12/21 07:04:33;;;;;;;98.35;48.45;;;;;;;-1.06;77.21;98201.77;1851035;77;25680;-86
2020/12/21 07:07:07;;;;;;;96.02;45.25;;;;;;;-1.02;77.24;98199.25;1820631;77;25719;-85
2020/12/21 07:09:37;;;;;;;100.02;48.70;;;;;;;-0.97;77.28;98206.37;1818037;77;27465;-85
2020/12/21 07:12:07;;;;;;;92.08;47.10;;;;;;;-0.94;77.33;98207.43;1817862;77;25717;-85
2020/12/21 07:14:41;;;;;;;83.70;44.05;;;;;;;-0.92;77.39;98210.81;1824739;77;25646;-85
2020/12/21 07:17:12;;;;;;;94.35;45.40;;;;;;;-0.88;77.46;98210.94;1832504;77;26538;-85
2020/12/21 07:19:42;;;;;;;88.62;45.90;;;;;;;-0.86;77.53;98207.70;1839887;77;26205;-85
2020/12/21 07:22:12;;;;;;;88.20;46.50;;;;;;;-0.81;77.57;98210.81;1833554;77;28553;-84
2020/12/21 07:24:42;;;;;;;94.52;47.98;;;;;;;-0.72;77.67;98216.22;1849785;77;25840;-85
2020/12/21 07:27:12;;;;;;;109.45;54.73;;;;;;;-0.69;77.65;98212.48;1831527;77;25740;-84
2020/12/21 07:29:41;;;;;;;112.95;58.45;;;;;;;-0.67;77.64;98213.22;1825359;77;25666;-85
2020/12/21 07:32:09;;;;;;;102.58;53.70;;;;;;;-0.62;77.66;98215.52;1833080;77;25307;-86
2020/12/21 07:34:37;;;;;;;96.53;48.92;;;;;;;-0.57;77.63;98207.53;1847076;77;27695;-85
2020/12/21 07:37:12;;;;;;;88.97;47.40;;;;;;;-0.50;77.65;98214.53;1835278;77;25408;-84
2020/12/21 07:39:39;;;;;;;94.83;46.92;;;;;;;-0.44;77.61;98212.22;1841596;77;25683;-85
2020/12/21 07:42:12;;;;;;;97.88;47.15;;;;;;;-0.38;77.61;98213.07;1833204;77;26452;-83
2020/12/21 07:44:47;;;;;;;89.10;45.73;;;;;;;-0.31;77.60;98209.42;1848200;77;25303;-86
2020/12/21 07:47:32;;;;;;;93.27;44.42;;;;;;;-0.30;77.55;98210.27;1833243;77;28723;-83
2020/12/21 07:50:00;;;;;;;82.08;42.05;;;;;;;-0.29;77.56;98214.12;1834794;77;25359;-84
2020/12/21 07:52:28;;;;;;;90.30;45.58;;;;;;;-0.24;77.59;98211.93;1817999;77;25788;-85
2020/12/21 07:54:59;;;;;;;89.65;43.95;;;;;;;-0.17;77.62;98210.96;1818152;77;26526;-86
2020/12/21 07:57:32;;;;;;;82.50;42.85;;;;;;;-0.09;77.64;98212.50;1841780;77;25759;-83
2020/12/21 08:00:00;;;;;;;86.20;42.40;;;;;;;0.01;77.67;98206.79;1818177;77;27583;-86
2020/12/21 08:02:29;;;;;;;84.10;41.37;;;;;;;0.05;77.56;98206.91;1838813;77;25783;-84
2020/12/21 08:04:57;;;;;;;79.97;40.60;;;;;;;0.09;77.51;98207.02;1846387;77;25706;-84
2020/12/21 08:07:29;;;;;;;77.97;40.12;;;;;;;0.15;77.56;98210.48;1820145;77;25733;-85
2020/12/21 08:09:57;;;;;;;77.72;38.23;;;;;;;0.16;77.52;98206.86;1851807;77;25982;-84
2020/12/21 08:12:31;;;;;;;71.42;39.18;;;;;;;0.21;77.57;98213.97;1831509;77;28712;-86
2020/12/21 08:15:05;;;;;;;69.58;35.80;;;;;;;0.30;77.60;98209.22;1829763;77;26331;-86
2020/12/21 08:17:32;;;;;;;58.30;29.12;;;;;;;0.41;77.55;98203.00;1812048;77;25928;-83
2020/12/21 08:20:06;;;;;;;56.28;28.85;;;;;;;0.41;77.39;98198.17;1841887;77;26523;-84
2020/12/21 08:22:37;;;;;;;56.90;29.72;;;;;;;0.41;77.31;98203.48;1835464;77;26069;-85
2020/12/21 08:25:09;;;;;;;67.03;33.80;;;;;;;0.42;77.34;98205.17;1824345;77;27713;-85
2020/12/21 08:27:49;;;;;;;61.95;33.58;;;;;;;0.46;77.39;98201.30;1821186;77;26283;-86
2020/12/21 08:30:24;;;;;;;72.87;36.88;;;;;;;0.47;77.40;98197.67;1851707;77;25790;-85
2020/12/21 08:32:55;;;;;;;83.33;40.12;;;;;;;0.47;77.38;98205.65;1851622;77;26228;-85
2020/12/21 08:35:29;;;;;;;81.40;40.65;;;;;;;0.53;77.37;98206.44;1851620;77;25714;-84
2020/12/21 08:38:13;;;;;;;84.70;40.85;;;;;;;0.57;77.32;98198.58;1846958;77;27638;-85
2020/12/21 08:40:41;;;;;;;90.38;41.20;;;;;;;0.62;77.32;98206.98;1836775;77;25724;-83
2020/12/21 08:43:09;;;;;;;76.35;40.28;;;;;;;0.71;77.33;98205.75;1851577;77;25738;-84
2020/12/21 08:45:38;;;;;;;83.60;42.88;;;;;;;0.80;77.28;98202.78;1834991;77;25661;-84
2020/12/21 08:48:06;;;;;;;77.92;41.45;;;;;;;0.88;77.27;98201.63;1841685;77;25744;-85
2020/12/21 08:50:33;;;;;;;80.95;41.83;;;;;;;0.97;77.24;98202.16;1832604;77;27675;-84
2020/12/21 08:53:01;;;;;;;80.72;44.27;;;;;;;1.07;77.19;98196.43;1851370;77;25884;-85
2020/12/21 08:55:28;;;;;;;82.33;43.28;;;;;;;1.17;77.14;98196.95;1829734;77;25628;-86
2020/12/21 08:57:55;;;;;;;76.57;43.38;;;;;;;1.27;77.14;98192.52;1809887;77;25810;-86
2020/12/21 09:00:25;;;;;;;75.47;41.55;;;;;;;1.35;76.98;98195.33;1800151;77;26433;-85
2020/12/21 09:02:52;;;;;;;70.37;38.58;;;;;;;1.42;76.94;98193.84;1809310;77;28944;-86
2020/12/21 09:05:20;;;;;;;75.37;40.63;;;;;;;1.49;76.88;98196.78;1826134;77;25678;-84
2020/12/21 09:07:47;;;;;;;78.57;45.75;;;;;;;1.47;76.71;98186.27;1834021;77;26307;-84
2020/12/21 09:10:15;;;;;;;93.52;47.85;;;;;;;1.52;76.75;98193.38;1810335;77;25789;-82
2020/12/21 09:12:42;;;;;;;99.05;53.65;;;;;;;1.58;76.71;98187.98;1809666;77;26323;-83
2020/12/21 09:15:10;;;;;;;109.25;57.00;;;;;;;1.61;76.67;98193.88;1832870;77;27491;-84
2020/12/21 09:17:37;;;;;;;107.07;57.23;;;;;;;1.67;76.58;98197.83;1798265;77;26329;-84
2020/12/21 09:20:04;;;;;;;100.12;58.13;;;;;;;1.72;76.50;98185.77;1789718;77;25767;-83
2020/12/21 09:22:32;;;;;;;101.25;57.40;;;;;;;1.77;76.53;98186.22;1800002;77;26257;-86
2020/12/21 09:25:00;;;;;;;99.62;55.43;;;;;;;1.85;76.56;98184.68;1794685;77;26413;-86
2020/12/21 09:27:27;;;;;;;106.63;58.20;;;;;;;1.90;76.54;98186.45;1787659;77;27571;-84
2020/12/21 09:29:54;;;;;;;99.97;57.35;;;;;;;1.97;76.56;98183.57;1820283;77;26253;-84
2020/12/21 09:32:22;;;;;;;100.20;56.63;;;;;;;2.01;76.52;98178.33;1807009;77;25964;-83
2020/12/21 09:34:49;;;;;;;101.15;54.40;;;;;;;2.06;76.48;98169.41;1831896;77;25728;-83
2020/12/21 09:37:17;;;;;;;97.00;50.95;;;;;;;2.09;76.29;98169.14;1796954;77;25810;-83
2020/12/21 09:39:44;;;;;;;98.85;52.30;;;;;;;2.08;76.14;98162.13;1796795;77;27480;-83
2020/12/21 09:42:11;;;;;;;98.25;47.70;;;;;;;2.13;76.18;98162.08;1815578;77;26114;-84
2020/12/21 09:44:39;;;;;;;98.42;49.20;;;;;;;2.18;76.10;98161.14;1842273;77;25348;-83
2020/12/21 09:47:06;;;;;;;90.45;47.80;;;;;;;2.27;76.05;98155.98;1826753;77;25803;-82
2020/12/21 09:49:34;;;;;;;86.92;46.92;;;;;;;2.35;75.98;98158.28;1812471;77;25802;-83
2020/12/21 09:52:01;;;;;;;88.55;45.43;;;;;;;2.42;75.96;98159.38;1820291;77;27675;-83
2020/12/21 09:54:30;;;;;;;80.55;45.20;;;;;;;2.47;75.89;98155.81;1802772;77;26395;-85
2020/12/21 09:56:57;;;;;;;84.85;45.55;;;;;;;2.48;75.76;98159.31;1805558;77;25767;-85
2020/12/21 09:59:25;;;;;;;81.60;44.48;;;;;;;2.47;75.64;98155.81;1835515;77;25808;-83
2020/12/21 10:01:52;;;;;;;83.00;43.58;;;;;;;2.53;75.71;98157.08;1833775;77;25728;-84
2020/12/21 10:04:20;;;;;;;83.52;44.08;;;;;;;2.62;75.75;98152.70;1836384;77;29011;-84
2020/12/21 10:06:51;;;;;;;96.45;47.90;;;;;;;2.69;75.71;98153.80;1842406;77;25757;-83
2020/12/21 10:09:19;;;;;;;107.67;53.60;;;;;;;2.77;75.58;98144.61;1820279;77;25885;-83
2020/12/21 10:11:46;;;;;;;102.25;50.80;;;;;;;2.85;75.55;98142.05;1842471;77;26490;-83
2020/12/21 10:14:13;;;;;;;99.87;50.63;;;;;;;2.88;75.50;98145.77;1839603;77;26243;-84
2020/12/21 10:16:41;;;;;;;95.97;48.87;;;;;;;2.87;75.41;98139.59;1800606;77;27708;-84
2020/12/21 10:19:08;;;;;;;93.60;47.08;;;;;;;2.90;75.31;98138.44;1802741;77;25718;-82
2020/12/21 10:21:35;;;;;;;100.85;47.35;;;;;;;2.91;75.30;98128.12;1798548;77;25762;-83
2020/12/21 10:24:03;;;;;;;91.17;45.92;;;;;;;2.93;75.24;98131.48;1841505;77;26403;-83
2020/12/21 10:26:31;;;;;;;101.27;49.48;;;;;;;2.91;75.13;98132.12;1834177;77;25748;-83
2020/12/21 10:28:58;;;;;;;113.08;55.43;;;;;;;2.90;75.08;98134.44;1829288;77;27496;-83
2020/12/21 10:31:32;;;;;;;116.15;57.43;;;;;;;2.85;74.99;98130.89;1809114;77;25694;-83
2020/12/21 10:33:59;;;;;;;111.85;58.15;;;;;;;2.84;74.95;98130.55;1795415;77;26320;-84
2020/12/21 10:36:27;;;;;;;113.57;55.30;;;;;;;2.85;74.93;98122.89;1794198;77;25821;-84
2020/12/21 10:38:54;;;;;;;106.67;53.87;;;;;;;2.83;74.97;98126.19;1793729;77;25800;-83
2020/12/21 10:41:21;;;;;;;114.52;58.90;;;;;;;2.76;74.92;98125.59;1823832;77;28466;-85
2020/12/21 10:43:49;;;;;;;119.47;61.00;;;;;;;2.71;75.03;98131.84;1831418;77;25818;-86
2020/12/21 10:46:21;;;;;;;133.07;64.58;;;;;;;2.70;75.12;98130.16;1823854;77;26351;-86
2020/12/21 10:48:49;;;;;;;131.32;65.17;;;;;;;2.71;75.19;98126.52;1816902;77;25583;-84
2020/12/21 10:51:20;;;;;;;140.73;68.15;;;;;;;2.75;75.22;98125.25;1787143;77;25982;-84
2020/12/21 10:53:48;;;;;;;125.58;65.25;;;;;;;2.79;75.23;98129.28;1822831;77;27561;-87
2020/12/21 10:56:15;;;;;;;127.62;65.08;;;;;;;2.81;75.26;98123.31;1818275;77;26099;-85
2020/12/21 10:58:43;;;;;;;134.32;65.22;;;;;;;2.88;75.30;98117.27;1808080;77;26397;-84
2020/12/21 11:01:10;;;;;;;134.18;65.60;;;;;;;2.96;75.30;98121.87;1792225;79;26700;-84
2020/12/21 11:03:38;;;;;;;118.90;61.83;;;;;;;3.01;75.23;98107.61;1788658;79;25751;-88
2020/12/21 11:06:06;;;;;;;125.92;64.12;;;;;;;3.04;75.21;98105.96;1765631;79;28463;-83
2020/12/21 11:08:33;;;;;;;233.23;92.25;;;;;;;3.09;75.22;98106.86;1763697;79;25730;-84
2020/12/21 11:11:00;;;;;;;196.80;81.35;;;;;;;3.12;75.21;98107.91;1788339;79;25690;-83
2020/12/21 11:13:28;;;;;;;170.43;67.32;;;;;;;3.18;75.21;98101.48;1785905;79;26393;-84
2020/12/21 11:15:55;;;;;;;132.93;57.15;;;;;;;3.15;74.96;98099.09;1795551;79;25703;-84
2020/12/21 11:18:23;;;;;;;120.82;49.60;;;;;;;3.18;75.04;98096.63;1795608;79;27702;-86
2020/12/21 11:20:50;;;;;;;103.75;42.80;;;;;;;3.29;75.05;98095.59;1773072;79;25698;-86
2020/12/21 11:23:17;;;;;;;76.42;36.98;;;;;;;3.39;75.04;98091.88;1773070;79;26263;-85
2020/12/21 11:25:47;;;;;;;67.17;35.88;;;;;;;3.47;75.07;98088.48;1786431;79;25683;-83